createdAt,value
2023-04-30T00:02:10.971Z,10.60
2023-04-30T00:04:39.440Z,10.60
2023-04-30T00:07:08.608Z,10.60
2023-04-30T00:09:37.054Z,10.60
2023-04-30T00:12:05.821Z,10.40
2023-04-30T00:14:36.483Z,10.30
2023-04-30T00:17:04.918Z,10.30
2023-04-30T00:19:33.377Z,10.40
2023-04-30T00:22:02.586Z,10.30
2023-04-30T00:24:31.127Z,10.10
2023-04-30T00:26:59.550Z,10.10
2023-04-30T00:29:28.004Z,10.10
2023-04-30T00:31:57.867Z,10.20
2023-04-30T00:34:26.441Z,10.20
2023-04-30T00:36:54.934Z,10.20
2023-04-30T00:39:23.386Z,10.30
2023-04-30T00:41:51.881Z,9.90
2023-04-30T00:44:20.586Z,9.90
2023-04-30T00:46:48.994Z,10.10
2023-04-30T00:49:18.863Z,10.10
2023-04-30T00:51:47.446Z,10.20
2023-04-30T00:54:16.105Z,10.20
2023-04-30T00:56:44.525Z,10.30
2023-04-30T00:59:13.508Z,10.30
2023-04-30T01:01:42.160Z,10.40
2023-04-30T01:04:10.805Z,10.40
2023-04-30T01:06:40.911Z,10.50
2023-04-30T01:09:10.420Z,10.50
2023-04-30T01:11:47.004Z,10.60
2023-04-30T01:14:25.170Z,10.70
2023-04-30T01:16:59.138Z,10.80
2023-04-30T01:19:39.415Z,10.80
2023-04-30T01:22:13.477Z,10.70
2023-04-30T01:25:00.990Z,10.70
2023-04-30T01:27:38.157Z,10.70
2023-04-30T01:30:09.517Z,10.50
2023-04-30T01:32:37.989Z,10.40
2023-04-30T01:35:07.170Z,10.40
2023-04-30T01:37:41.854Z,10.30
2023-04-30T01:40:25.579Z,10.30
2023-04-30T01:42:59.482Z,10.00
2023-04-30T01:45:38.434Z,9.90
2023-04-30T01:48:13.981Z,10.00
2023-04-30T01:50:48.584Z,10.00
2023-04-30T01:53:32.479Z,10.10
2023-04-30T01:56:03.519Z,10.10
2023-04-30T01:58:32.365Z,10.10
2023-04-30T02:01:02.146Z,10.10
2023-04-30T02:03:30.763Z,10.10
2023-04-30T02:05:59.422Z,10.00
2023-04-30T02:08:28.285Z,9.90
2023-04-30T02:10:56.680Z,9.90
2023-04-30T02:13:25.287Z,9.90
2023-04-30T02:15:53.774Z,10.00
2023-04-30T02:18:23.650Z,9.90
2023-04-30T02:20:52.079Z,9.70
2023-04-30T02:23:20.527Z,9.60
2023-04-30T02:25:48.927Z,9.40
2023-04-30T02:28:17.373Z,9.40
2023-04-30T02:30:45.804Z,9.50
2023-04-30T02:33:14.276Z,9.60
2023-04-30T02:35:44.121Z,9.60
2023-04-30T02:38:12.628Z,9.60
2023-04-30T02:40:42.377Z,9.50
2023-04-30T02:43:10.756Z,9.50
2023-04-30T02:45:39.264Z,9.40
2023-04-30T02:48:07.890Z,9.40
2023-04-30T02:50:36.330Z,9.40
2023-04-30T02:53:06.196Z,9.40
2023-04-30T02:55:34.713Z,9.40
2023-04-30T02:58:03.241Z,9.40
2023-04-30T03:00:31.657Z,9.40
2023-04-30T03:03:00.311Z,9.40
2023-04-30T03:05:29.396Z,9.40
2023-04-30T03:07:57.815Z,9.40
2023-04-30T03:10:27.620Z,9.40
2023-04-30T03:12:56.088Z,9.40
2023-04-30T03:15:24.521Z,9.20
2023-04-30T03:17:53.117Z,9.10
2023-04-30T03:20:21.728Z,9.00
2023-04-30T03:22:50.237Z,8.80
2023-04-30T03:25:18.670Z,8.80
2023-04-30T03:27:48.514Z,8.90
2023-04-30T03:30:16.961Z,8.90
2023-04-30T03:32:45.739Z,8.70
2023-04-30T03:35:14.297Z,8.60
2023-04-30T03:37:43.025Z,8.60
2023-04-30T03:40:12.392Z,8.60
2023-04-30T03:42:40.899Z,8.70
2023-04-30T03:45:11.694Z,8.70
2023-04-30T03:47:40.232Z,8.70
2023-04-30T03:50:10.185Z,8.70
2023-04-30T03:52:39.045Z,8.70
2023-04-30T03:55:08.502Z,8.80
2023-04-30T03:57:36.934Z,8.50
2023-04-30T04:00:07.731Z,8.60
2023-04-30T04:02:38.103Z,8.60
2023-04-30T04:05:08.129Z,8.40
2023-04-30T04:07:36.562Z,8.20
2023-04-30T04:10:05.309Z,8.30
2023-04-30T04:12:33.884Z,8.40
2023-04-30T04:15:02.354Z,8.40
2023-04-30T04:17:31.182Z,8.30
2023-04-30T04:20:00.997Z,8.50
2023-04-30T04:22:29.469Z,8.40
2023-04-30T04:24:58.472Z,8.60
2023-04-30T04:27:26.965Z,8.70
2023-04-30T04:29:55.833Z,8.90
2023-04-30T04:32:24.743Z,8.90
2023-04-30T04:34:54.413Z,9.00
2023-04-30T04:37:24.359Z,9.00
2023-04-30T04:39:52.987Z,8.90
2023-04-30T04:42:21.820Z,8.90
2023-04-30T04:44:50.305Z,9.00
2023-04-30T04:47:21.909Z,9.00
2023-04-30T04:49:50.407Z,9.00
2023-04-30T04:52:19.037Z,9.20
2023-04-30T04:54:49.021Z,9.30
2023-04-30T04:57:17.482Z,9.40
2023-04-30T04:59:45.893Z,9.50
2023-04-30T05:02:14.386Z,9.60
2023-04-30T05:04:43.065Z,9.80
2023-04-30T05:07:11.595Z,9.90
2023-04-30T05:09:40.043Z,10.10
2023-04-30T05:12:09.973Z,10.20
2023-04-30T05:14:38.401Z,10.40
2023-04-30T05:17:06.872Z,10.50
2023-04-30T05:19:35.337Z,10.60
2023-04-30T05:22:04.330Z,10.70
2023-04-30T05:24:35.786Z,10.80
2023-04-30T05:27:05.144Z,10.80
2023-04-30T05:29:35.362Z,11.00
2023-04-30T05:32:03.955Z,11.20
2023-04-30T05:34:32.552Z,11.60
2023-04-30T05:37:01.617Z,12.20
2023-04-30T05:39:30.069Z,12.80
2023-04-30T05:41:58.510Z,13.50
2023-04-30T05:44:26.948Z,14.40
2023-04-30T05:46:56.816Z,15.20
2023-04-30T05:49:25.354Z,16.00
2023-04-30T05:51:54.022Z,16.60
2023-04-30T05:54:22.494Z,17.50
2023-04-30T05:56:51.306Z,18.40
2023-04-30T05:59:20.005Z,19.10
2023-04-30T06:01:48.676Z,19.60
2023-04-30T06:04:18.726Z,20.10
2023-04-30T06:06:47.348Z,20.40
2023-04-30T06:09:16.096Z,20.50
2023-04-30T06:11:45.830Z,20.70
2023-04-30T06:14:14.325Z,20.80
2023-04-30T06:16:42.796Z,20.90
2023-04-30T06:19:11.362Z,21.10
2023-04-30T06:21:43.478Z,21.10
2023-04-30T06:24:12.033Z,21.30
2023-04-30T06:26:40.472Z,21.20
2023-04-30T06:29:08.964Z,20.70
2023-04-30T06:31:37.500Z,20.20
2023-04-30T06:34:05.956Z,19.70
2023-04-30T06:36:37.124Z,19.10
2023-04-30T06:39:07.041Z,18.70
2023-04-30T06:41:35.645Z,18.80
2023-04-30T06:44:04.079Z,19.20
2023-04-30T06:46:32.513Z,19.70
2023-04-30T06:49:00.995Z,20.00
2023-04-30T06:51:29.440Z,19.90
2023-04-30T06:53:57.954Z,19.80
2023-04-30T06:56:27.831Z,19.70
2023-04-30T06:58:56.243Z,19.90
2023-04-30T07:01:24.683Z,20.20
2023-04-30T07:03:55.109Z,20.40
2023-04-30T07:06:23.948Z,20.60
2023-04-30T07:08:52.472Z,20.80
2023-04-30T07:11:21.291Z,20.80
2023-04-30T07:13:51.467Z,20.60
2023-04-30T07:16:19.992Z,20.20
2023-04-30T07:18:49.366Z,19.80
2023-04-30T07:21:18.005Z,19.50
2023-04-30T07:23:46.463Z,19.30
2023-04-30T07:26:15.072Z,19.00
2023-04-30T07:28:43.635Z,18.80
2023-04-30T07:31:13.760Z,18.70
2023-04-30T07:33:42.481Z,18.60
2023-04-30T07:36:11.460Z,18.50
2023-04-30T07:38:39.924Z,18.40
2023-04-30T07:41:09.546Z,18.20
2023-04-30T07:43:38.039Z,18.10
2023-04-30T07:46:06.740Z,17.80
2023-04-30T07:48:37.745Z,17.70
2023-04-30T07:51:06.265Z,17.70
2023-04-30T07:53:34.805Z,17.70
2023-04-30T07:56:03.579Z,17.70
2023-04-30T07:58:32.069Z,17.70
2023-04-30T08:01:00.453Z,17.60
2023-04-30T08:03:28.948Z,17.60
2023-04-30T08:05:58.988Z,17.70
2023-04-30T08:08:27.407Z,17.80
2023-04-30T08:10:55.956Z,17.70
2023-04-30T08:13:24.400Z,17.50
2023-04-30T08:15:52.928Z,17.30
2023-04-30T08:18:21.658Z,17.30
2023-04-30T08:20:50.335Z,17.10
2023-04-30T08:23:22.287Z,16.90
2023-04-30T08:25:51.711Z,16.80
2023-04-30T08:28:20.274Z,16.70
2023-04-30T08:30:48.664Z,16.60
2023-04-30T08:33:17.258Z,16.50
2023-04-30T08:35:45.764Z,16.40
2023-04-30T08:38:14.437Z,16.30
2023-04-30T08:40:51.584Z,16.30
2023-04-30T08:43:21.495Z,16.40
2023-04-30T08:45:50.987Z,16.50
2023-04-30T08:48:20.646Z,16.60
2023-04-30T08:50:49.085Z,16.60
2023-04-30T08:53:17.891Z,16.70
2023-04-30T08:55:48.114Z,16.70
2023-04-30T08:58:16.608Z,16.90
2023-04-30T09:00:45.101Z,17.10
2023-04-30T09:03:13.613Z,17.10
2023-04-30T09:05:42.383Z,17.10
2023-04-30T09:08:10.826Z,17.00
2023-04-30T09:10:39.319Z,17.00
2023-04-30T09:13:10.025Z,16.90
2023-04-30T09:15:41.545Z,16.80
2023-04-30T09:18:12.442Z,16.90
2023-04-30T09:20:58.439Z,16.90
2023-04-30T09:23:27.148Z,17.00
2023-04-30T09:25:55.858Z,17.10
2023-04-30T09:28:27.377Z,17.10
2023-04-30T09:30:57.955Z,17.10
2023-04-30T09:33:26.501Z,17.00
2023-04-30T09:35:55.174Z,16.90
2023-04-30T09:38:28.521Z,16.90
2023-04-30T09:40:58.730Z,16.90
2023-04-30T09:43:28.557Z,16.90
2023-04-30T09:45:59.637Z,17.00
2023-04-30T09:48:29.173Z,17.00
2023-04-30T09:50:57.789Z,17.10
2023-04-30T09:53:26.326Z,17.10
2023-04-30T09:55:56.146Z,17.20
2023-04-30T09:58:30.448Z,17.30
2023-04-30T10:01:00.969Z,17.70
2023-04-30T10:03:29.691Z,18.10
2023-04-30T10:06:00.235Z,18.30
2023-04-30T10:08:30.210Z,18.40
2023-04-30T10:11:01.221Z,18.50
2023-04-30T10:13:33.572Z,18.60
2023-04-30T10:16:09.673Z,18.60
2023-04-30T10:18:41.041Z,18.50
2023-04-30T10:21:12.730Z,18.50
2023-04-30T10:23:43.704Z,18.30
2023-04-30T10:26:13.060Z,18.10
2023-04-30T10:28:43.986Z,18.10
2023-04-30T10:31:13.876Z,18.10
2023-04-30T10:33:50.002Z,18.10
2023-04-30T10:36:28.258Z,18.20
2023-04-30T10:38:56.840Z,18.10
2023-04-30T10:41:28.077Z,18.20
2023-04-30T10:44:05.290Z,18.20
2023-04-30T10:46:36.371Z,18.10
2023-04-30T10:49:05.419Z,18.10
2023-04-30T10:51:47.148Z,18.20
2023-04-30T10:54:17.911Z,18.10
2023-04-30T10:56:48.574Z,18.20
2023-04-30T10:59:18.436Z,18.20
2023-04-30T11:01:58.218Z,18.20
2023-04-30T11:04:27.273Z,18.00
2023-04-30T11:07:10.404Z,17.90
2023-04-30T11:09:42.255Z,17.80
2023-04-30T11:12:15.478Z,18.00
2023-04-30T11:14:49.090Z,18.30
2023-04-30T11:17:24.029Z,18.50
2023-04-30T11:19:53.841Z,18.70
2023-04-30T11:22:25.972Z,18.80
2023-04-30T11:24:55.973Z,18.70
2023-04-30T11:27:25.871Z,18.80
2023-04-30T11:29:57.308Z,18.80
2023-04-30T11:32:29.523Z,18.80
2023-04-30T11:34:58.095Z,18.90
2023-04-30T11:37:32.601Z,18.70
2023-04-30T11:40:04.012Z,18.90
2023-04-30T11:42:34.643Z,18.90
2023-04-30T11:45:10.364Z,19.00
2023-04-30T11:47:47.148Z,19.00
2023-04-30T11:50:16.831Z,19.00
2023-04-30T11:52:50.871Z,18.90
2023-04-30T11:55:21.283Z,19.10
2023-04-30T11:57:53.201Z,19.30
2023-04-30T12:00:26.869Z,19.30
2023-04-30T12:02:56.178Z,19.10
2023-04-30T12:05:26.597Z,19.10
2023-04-30T12:07:57.203Z,19.30
2023-04-30T12:10:27.392Z,19.40
2023-04-30T12:12:56.366Z,19.50
2023-04-30T12:15:27.557Z,19.40
2023-04-30T12:17:57.351Z,19.40
2023-04-30T12:20:27.139Z,19.20
2023-04-30T12:22:55.930Z,19.00
2023-04-30T12:25:24.904Z,18.70
2023-04-30T12:27:54.298Z,18.40
2023-04-30T12:30:23.737Z,18.30
2023-04-30T12:32:54.907Z,18.20
2023-04-30T12:35:25.054Z,18.00
2023-04-30T12:37:55.319Z,17.80
2023-04-30T12:40:28.697Z,17.90
2023-04-30T12:43:03.624Z,17.90
2023-04-30T12:45:46.762Z,17.80
2023-04-30T12:48:17.452Z,17.80
2023-04-30T12:50:50.372Z,17.90
2023-04-30T12:53:19.374Z,18.00
2023-04-30T12:56:09.418Z,18.10
2023-04-30T12:58:38.926Z,18.20
2023-04-30T13:01:13.265Z,18.40
2023-04-30T13:03:43.626Z,18.40
2023-04-30T13:06:12.420Z,18.50
2023-04-30T13:08:50.273Z,18.70
2023-04-30T13:11:40.254Z,18.90
2023-04-30T13:14:10.451Z,19.00
2023-04-30T13:16:40.250Z,19.20
2023-04-30T13:19:11.488Z,19.20
2023-04-30T13:21:39.937Z,19.20
2023-04-30T13:24:09.339Z,19.10
2023-04-30T13:26:38.758Z,19.20
2023-04-30T13:29:07.507Z,19.20
2023-04-30T13:31:36.473Z,19.20
2023-04-30T13:34:05.911Z,19.10
2023-04-30T13:36:35.741Z,19.10
2023-04-30T13:39:04.794Z,19.10
2023-04-30T13:41:33.269Z,19.00
2023-04-30T13:44:03.035Z,19.00
2023-04-30T13:46:31.636Z,19.00
2023-04-30T13:49:00.166Z,19.10
2023-04-30T13:51:28.865Z,19.20
2023-04-30T13:53:58.822Z,19.30
2023-04-30T13:56:27.448Z,19.20
2023-04-30T13:58:55.953Z,19.10
2023-04-30T14:01:24.532Z,19.10
2023-04-30T14:03:53.218Z,19.10
2023-04-30T14:06:22.286Z,19.20
2023-04-30T14:08:50.892Z,19.10
2023-04-30T14:11:20.948Z,19.10
2023-04-30T14:13:49.382Z,19.00
2023-04-30T14:16:19.069Z,18.90
2023-04-30T14:18:47.685Z,19.00
2023-04-30T14:21:16.107Z,19.10
2023-04-30T14:23:46.561Z,19.30
2023-04-30T14:26:15.112Z,19.40
2023-04-30T14:28:44.922Z,19.40
2023-04-30T14:31:13.388Z,19.50
2023-04-30T14:33:42.175Z,19.60
2023-04-30T14:36:11.095Z,19.50
2023-04-30T14:38:39.577Z,19.30
2023-04-30T14:41:08.053Z,19.20
2023-04-30T14:43:36.813Z,19.20
2023-04-30T14:46:06.999Z,19.10
2023-04-30T14:48:36.036Z,19.10
2023-04-30T14:51:04.543Z,18.90
2023-04-30T14:53:33.126Z,18.80
2023-04-30T14:56:02.296Z,18.70
2023-04-30T14:58:30.745Z,18.70
2023-04-30T15:00:59.353Z,18.70
2023-04-30T15:03:29.498Z,18.70
2023-04-30T15:05:58.264Z,18.70
2023-04-30T15:08:26.860Z,18.60
2023-04-30T15:10:56.042Z,18.70
2023-04-30T15:13:24.506Z,18.70
2023-04-30T15:15:53.051Z,18.60
2023-04-30T15:18:21.596Z,18.60
2023-04-30T15:20:51.429Z,18.60
2023-04-30T15:23:20.097Z,18.50
2023-04-30T15:25:49.810Z,18.60
2023-04-30T15:28:18.550Z,18.50
2023-04-30T15:30:46.976Z,18.60
2023-04-30T15:33:15.538Z,18.50
2023-04-30T15:35:44.199Z,18.60
2023-04-30T15:38:14.282Z,18.60
2023-04-30T15:40:42.729Z,18.60
2023-04-30T15:43:11.144Z,18.60
2023-04-30T15:45:39.974Z,18.50
2023-04-30T15:48:08.581Z,18.40
2023-04-30T15:50:37.128Z,18.40
2023-04-30T15:53:05.716Z,18.40
2023-04-30T15:55:35.576Z,18.50
2023-04-30T15:58:04.334Z,18.50
2023-04-30T16:00:32.851Z,18.50
2023-04-30T16:03:01.843Z,18.40
2023-04-30T16:05:30.790Z,18.40
2023-04-30T16:07:59.794Z,18.40
2023-04-30T16:10:28.364Z,18.40
2023-04-30T16:12:58.216Z,18.40
2023-04-30T16:15:27.617Z,18.30
2023-04-30T16:17:56.320Z,18.30
2023-04-30T16:20:24.806Z,18.30
2023-04-30T16:22:53.362Z,18.30
2023-04-30T16:25:22.744Z,18.20
2023-04-30T16:27:51.709Z,18.30
2023-04-30T16:30:21.870Z,18.20
2023-04-30T16:32:50.438Z,18.20
2023-04-30T16:35:19.484Z,18.20
2023-04-30T16:37:47.976Z,18.10
2023-04-30T16:40:16.687Z,18.10
2023-04-30T16:42:45.115Z,18.00
2023-04-30T16:45:13.553Z,18.00
2023-04-30T16:47:43.365Z,18.00
2023-04-30T16:50:12.079Z,18.00
2023-04-30T16:52:40.661Z,18.00
2023-04-30T16:55:10.557Z,17.90
2023-04-30T16:57:39.082Z,17.90
2023-04-30T17:00:14.248Z,17.80
2023-04-30T17:02:45.679Z,17.80
2023-04-30T17:05:14.959Z,17.60
2023-04-30T17:07:44.578Z,17.50
2023-04-30T17:10:13.583Z,17.40
2023-04-30T17:12:42.021Z,17.40
2023-04-30T17:15:11.081Z,17.30
2023-04-30T17:17:39.659Z,17.20
2023-04-30T17:20:10.502Z,17.10
2023-04-30T17:22:38.992Z,17.10
2023-04-30T17:25:08.162Z,17.10
2023-04-30T17:27:37.561Z,17.10
2023-04-30T17:30:08.141Z,17.10
2023-04-30T17:32:36.648Z,17.00
2023-04-30T17:35:09.163Z,17.00
2023-04-30T17:37:37.616Z,17.00
2023-04-30T17:40:07.678Z,16.90
2023-04-30T17:42:36.348Z,16.90
2023-04-30T17:45:05.199Z,16.80
2023-04-30T17:47:33.841Z,16.80
2023-04-30T17:50:04.947Z,16.70
2023-04-30T17:52:38.364Z,16.70
2023-04-30T17:55:08.428Z,16.60
2023-04-30T17:57:36.954Z,16.50
2023-04-30T18:00:07.142Z,16.40
2023-04-30T18:02:35.939Z,16.30
2023-04-30T18:05:04.676Z,16.30
2023-04-30T18:07:34.482Z,16.20
2023-04-30T18:10:03.370Z,16.00
2023-04-30T18:12:31.907Z,16.10
2023-04-30T18:15:00.763Z,16.10
2023-04-30T18:17:29.249Z,16.00
2023-04-30T18:19:57.934Z,15.90
2023-04-30T18:22:26.677Z,15.90
2023-04-30T18:24:56.635Z,15.90
2023-04-30T18:27:25.217Z,15.80
2023-04-30T18:29:53.811Z,15.70
2023-04-30T18:32:22.581Z,15.70
2023-04-30T18:34:51.054Z,15.60
2023-04-30T18:37:20.896Z,15.50
2023-04-30T18:39:51.283Z,15.50
2023-04-30T18:42:21.390Z,15.50
2023-04-30T18:44:49.907Z,15.50
2023-04-30T18:47:19.017Z,15.40
2023-04-30T18:49:47.588Z,15.30
2023-04-30T18:52:16.042Z,15.30
2023-04-30T18:54:44.522Z,15.40
2023-04-30T18:57:16.293Z,15.30
2023-04-30T18:59:46.253Z,15.40
2023-04-30T19:02:15.635Z,15.40
2023-04-30T19:04:44.275Z,15.40
2023-04-30T19:07:13.079Z,15.40
2023-04-30T19:09:41.539Z,15.40
2023-04-30T19:12:10.324Z,15.40
2023-04-30T19:14:38.919Z,15.30
2023-04-30T19:17:08.861Z,15.20
2023-04-30T19:19:37.368Z,15.20
2023-04-30T19:22:06.461Z,15.10
2023-04-30T19:24:34.987Z,15.00
2023-04-30T19:27:04.219Z,15.00
2023-04-30T19:29:32.688Z,15.00
2023-04-30T19:32:03.731Z,14.90
2023-04-30T19:34:34.699Z,14.90
2023-04-30T19:37:03.666Z,14.80
2023-04-30T19:39:33.975Z,14.70
2023-04-30T19:42:03.699Z,14.70
2023-04-30T19:44:32.144Z,14.60
2023-04-30T19:47:00.680Z,14.60
2023-04-30T19:49:29.359Z,14.50
2023-04-30T19:51:59.659Z,14.40
2023-04-30T19:54:28.174Z,14.40
2023-04-30T19:56:57.918Z,14.40
2023-04-30T19:59:27.788Z,14.30
2023-04-30T20:01:56.383Z,14.00
2023-04-30T20:04:26.408Z,13.90
2023-04-30T20:06:57.301Z,13.90
2023-04-30T20:09:27.232Z,13.80
2023-04-30T20:11:56.392Z,13.70
2023-04-30T20:14:25.026Z,13.50
2023-04-30T20:16:54.440Z,13.50
2023-04-30T20:19:23.339Z,13.40
2023-04-30T20:21:51.957Z,13.40
2023-04-30T20:24:22.780Z,13.40
2023-04-30T20:26:52.749Z,13.40
2023-04-30T20:29:23.228Z,13.40
2023-04-30T20:31:51.951Z,13.40
2023-04-30T20:34:20.623Z,13.30
2023-04-30T20:36:49.918Z,13.30
2023-04-30T20:39:18.360Z,13.20
2023-04-30T20:41:48.061Z,13.20
2023-04-30T20:44:17.877Z,13.20
2023-04-30T20:46:46.537Z,13.20
2023-04-30T20:49:15.278Z,13.10
2023-04-30T20:51:43.738Z,13.10
2023-04-30T20:54:12.196Z,13.00
2023-04-30T20:56:40.716Z,12.90
2023-04-30T20:59:09.189Z,12.90
2023-04-30T21:01:39.227Z,12.80
2023-04-30T21:04:08.022Z,12.70
2023-04-30T21:06:37.157Z,12.60
2023-04-30T21:09:06.296Z,12.50
2023-04-30T21:11:35.052Z,12.30
2023-04-30T21:14:03.565Z,12.30
2023-04-30T21:16:32.513Z,12.30
2023-04-30T21:19:02.669Z,12.20
2023-04-30T21:21:31.185Z,12.20
2023-04-30T21:24:01.078Z,12.10
2023-04-30T21:26:29.879Z,12.00
2023-04-30T21:28:58.882Z,12.00
2023-04-30T21:31:27.960Z,11.80
2023-04-30T21:33:56.566Z,11.70
2023-04-30T21:36:27.086Z,11.80
2023-04-30T21:38:56.088Z,11.80
2023-04-30T21:41:25.308Z,11.80
2023-04-30T21:43:53.763Z,11.80
2023-04-30T21:46:22.774Z,11.90
2023-04-30T21:48:51.460Z,11.80
2023-04-30T21:51:20.022Z,11.70
2023-04-30T21:53:49.823Z,11.70
2023-04-30T21:56:19.749Z,11.70
2023-04-30T21:58:50.195Z,11.60
2023-04-30T22:01:19.819Z,11.60
2023-04-30T22:03:48.553Z,11.60
2023-04-30T22:06:17.167Z,11.50
2023-04-30T22:08:45.591Z,11.50
2023-04-30T22:11:15.430Z,11.40
2023-04-30T22:13:44.006Z,11.40
2023-04-30T22:16:12.654Z,11.40
2023-04-30T22:18:41.175Z,11.50
2023-04-30T22:21:09.641Z,11.20
2023-04-30T22:23:38.131Z,11.20
2023-04-30T22:26:09.754Z,11.20
2023-04-30T22:28:39.690Z,10.90
2023-04-30T22:31:08.519Z,11.00
2023-04-30T22:33:37.760Z,11.10
2023-04-30T22:36:07.187Z,11.10
2023-04-30T22:38:36.106Z,10.90
2023-04-30T22:41:04.800Z,11.00
2023-04-30T22:43:33.529Z,11.10
2023-04-30T22:46:03.439Z,11.00
2023-04-30T22:48:31.950Z,11.10
2023-04-30T22:51:00.428Z,11.10
2023-04-30T22:53:29.839Z,11.20
2023-04-30T22:55:58.479Z,11.20
2023-04-30T22:58:26.913Z,11.30
2023-04-30T23:00:55.478Z,11.30
2023-04-30T23:03:26.209Z,11.20
2023-04-30T23:05:55.123Z,11.30
2023-04-30T23:08:23.681Z,11.30
2023-04-30T23:10:53.121Z,11.30
2023-04-30T23:13:21.660Z,11.30
2023-04-30T23:15:50.136Z,11.30
2023-04-30T23:18:19.668Z,11.40
2023-04-30T23:20:49.483Z,11.40
2023-04-30T23:23:18.021Z,11.30
2023-04-30T23:25:47.662Z,11.20
2023-04-30T23:28:16.111Z,11.20
2023-04-30T23:30:45.117Z,11.20
2023-04-30T23:33:13.844Z,11.20
2023-04-30T23:35:43.293Z,11.10
2023-04-30T23:38:13.234Z,11.10
2023-04-30T23:40:42.764Z,11.20
2023-04-30T23:43:11.763Z,11.10
2023-04-30T23:45:42.186Z,11.10
2023-04-30T23:48:10.697Z,11.10
2023-04-30T23:50:39.204Z,11.00
2023-04-30T23:53:07.746Z,11.00
2023-04-30T23:55:37.641Z,11.00
2023-04-30T23:58:06.278Z,11.00
